sensor_id;sensor_type;location;lat;lon;timestamp;pressure;altitude;pressure_sealevel;temperature;humidity
33506;BME280;19843;51.040;13.782;2023-01-31T00:01:18;100245.34;;;4.30;85.01
33506;BME280;19843;51.040;13.782;2023-01-31T00:03:46;100236.81;;;4.23;83.56
33506;BME280;19843;51.040;13.782;2023-01-31T00:06:16;100233.88;;;4.29;83.24
33506;BME280;19843;51.040;13.782;2023-01-31T00:08:46;100223.47;;;4.25;83.18
33506;BME280;19843;51.040;13.782;2023-01-31T00:11:15;100236.53;;;4.29;83.03
33506;BME280;19843;51.040;13.782;2023-01-31T00:13:44;100221.00;;;4.20;82.76
33506;BME280;19843;51.040;13.782;2023-01-31T00:16:13;100243.41;;;4.33;82.56
33506;BME280;19843;51.040;13.782;2023-01-31T00:18:41;100244.56;;;4.28;82.98
33506;BME280;19843;51.040;13.782;2023-01-31T00:21:10;100241.16;;;4.24;82.76
33506;BME280;19843;51.040;13.782;2023-01-31T00:23:39;100255.88;;;4.31;82.71
33506;BME280;19843;51.040;13.782;2023-01-31T00:26:10;100252.13;;;4.37;81.97
33506;BME280;19843;51.040;13.782;2023-01-31T00:28:39;100250.47;;;4.34;83.34
33506;BME280;19843;51.040;13.782;2023-01-31T00:31:07;100245.75;;;4.41;82.70
33506;BME280;19843;51.040;13.782;2023-01-31T00:33:36;100263.78;;;4.53;81.20
33506;BME280;19843;51.040;13.782;2023-01-31T00:36:05;100265.03;;;4.65;80.72
33506;BME280;19843;51.040;13.782;2023-01-31T00:38:33;100259.59;;;4.68;81.07
33506;BME280;19843;51.040;13.782;2023-01-31T00:41:02;100268.06;;;4.76;80.57
33506;BME280;19843;51.040;13.782;2023-01-31T00:43:31;100266.47;;;4.72;80.07
33506;BME280;19843;51.040;13.782;2023-01-31T00:46:00;100261.91;;;4.76;80.80
33506;BME280;19843;51.040;13.782;2023-01-31T00:48:28;100267.34;;;4.73;80.29
33506;BME280;19843;51.040;13.782;2023-01-31T00:50:55;100281.06;;;4.82;80.26
33506;BME280;19843;51.040;13.782;2023-01-31T00:53:23;100289.47;;;4.73;80.78
33506;BME280;19843;51.040;13.782;2023-01-31T00:55:52;100289.31;;;4.76;80.70
33506;BME280;19843;51.040;13.782;2023-01-31T00:58:20;100291.88;;;4.59;81.25
33506;BME280;19843;51.040;13.782;2023-01-31T01:00:49;100292.06;;;4.54;81.21
33506;BME280;19843;51.040;13.782;2023-01-31T01:03:16;100295.59;;;4.55;81.31
33506;BME280;19843;51.040;13.782;2023-01-31T01:05:44;100299.56;;;4.45;81.64
33506;BME280;19843;51.040;13.782;2023-01-31T01:08:12;100305.34;;;4.54;80.43
33506;BME280;19843;51.040;13.782;2023-01-31T01:10:39;100305.34;;;4.34;80.27
33506;BME280;19843;51.040;13.782;2023-01-31T01:13:06;100297.00;;;4.43;80.06
33506;BME280;19843;51.040;13.782;2023-01-31T01:15:36;100300.75;;;4.37;79.97
33506;BME280;19843;51.040;13.782;2023-01-31T01:18:05;100315.88;;;4.35;79.97
33506;BME280;19843;51.040;13.782;2023-01-31T01:20:33;100316.47;;;4.22;79.73
33506;BME280;19843;51.040;13.782;2023-01-31T01:23:03;100326.06;;;4.04;78.91
33506;BME280;19843;51.040;13.782;2023-01-31T01:25:40;100327.53;;;4.11;78.79
33506;BME280;19843;51.040;13.782;2023-01-31T01:28:08;100331.50;;;4.23;79.17
33506;BME280;19843;51.040;13.782;2023-01-31T01:30:36;100337.63;;;4.03;78.42
33506;BME280;19843;51.040;13.782;2023-01-31T01:33:05;100331.50;;;4.23;79.23
33506;BME280;19843;51.040;13.782;2023-01-31T01:35:32;100345.19;;;4.12;80.05
33506;BME280;19843;51.040;13.782;2023-01-31T01:38:00;100343.78;;;4.03;80.52
33506;BME280;19843;51.040;13.782;2023-01-31T01:40:33;100340.28;;;4.03;80.84
33506;BME280;19843;51.040;13.782;2023-01-31T01:43:02;100348.94;;;4.06;81.21
33506;BME280;19843;51.040;13.782;2023-01-31T01:45:29;100367.28;;;3.90;83.01
33506;BME280;19843;51.040;13.782;2023-01-31T01:47:59;100357.19;;;3.78;83.79
33506;BME280;19843;51.040;13.782;2023-01-31T01:50:31;100364.56;;;3.70;84.46
33506;BME280;19843;51.040;13.782;2023-01-31T01:53:03;100373.75;;;3.61;86.06
33506;BME280;19843;51.040;13.782;2023-01-31T01:55:34;100370.00;;;3.67;86.33
33506;BME280;19843;51.040;13.782;2023-01-31T01:58:07;100379.91;;;3.84;85.71
33506;BME280;19843;51.040;13.782;2023-01-31T02:00:36;100378.53;;;3.75;85.92
33506;BME280;19843;51.040;13.782;2023-01-31T02:03:06;100397.81;;;3.79;85.26
33506;BME280;19843;51.040;13.782;2023-01-31T02:05:38;100394.44;;;3.97;85.13
33506;BME280;19843;51.040;13.782;2023-01-31T02:08:06;100404.13;;;3.98;84.73
33506;BME280;19843;51.040;13.782;2023-01-31T02:10:39;100389.06;;;3.98;86.22
33506;BME280;19843;51.040;13.782;2023-01-31T02:13:08;100389.25;;;3.94;87.11
33506;BME280;19843;51.040;13.782;2023-01-31T02:15:36;100385.75;;;3.93;87.00
33506;BME280;19843;51.040;13.782;2023-01-31T02:18:04;100385.84;;;3.90;86.25
33506;BME280;19843;51.040;13.782;2023-01-31T02:21:06;100382.09;;;3.96;85.93
33506;BME280;19843;51.040;13.782;2023-01-31T02:23:53;100379.03;;;4.07;85.92
33506;BME280;19843;51.040;13.782;2023-01-31T02:26:54;100389.69;;;4.05;85.48
33506;BME280;19843;51.040;13.782;2023-01-31T02:29:44;100396.47;;;4.12;85.29
33506;BME280;19843;51.040;13.782;2023-01-31T02:32:41;100404.50;;;4.11;84.51
33506;BME280;19843;51.040;13.782;2023-01-31T02:35:17;100416.72;;;4.15;84.17
33506;BME280;19843;51.040;13.782;2023-01-31T02:37:58;100399.97;;;4.13;83.33
33506;BME280;19843;51.040;13.782;2023-01-31T02:40:36;100413.78;;;4.23;83.07
33506;BME280;19843;51.040;13.782;2023-01-31T02:43:09;100423.25;;;4.28;82.79
33506;BME280;19843;51.040;13.782;2023-01-31T02:45:46;100430.31;;;4.29;82.67
33506;BME280;19843;51.040;13.782;2023-01-31T02:48:24;100425.00;;;4.29;82.45
33506;BME280;19843;51.040;13.782;2023-01-31T02:50:58;100431.34;;;4.25;81.95
33506;BME280;19843;51.040;13.782;2023-01-31T02:53:30;100438.28;;;4.29;81.24
33506;BME280;19843;51.040;13.782;2023-01-31T02:56:01;100439.75;;;4.36;80.30
33506;BME280;19843;51.040;13.782;2023-01-31T02:58:47;100450.84;;;4.46;80.11
33506;BME280;19843;51.040;13.782;2023-01-31T03:01:20;100451.97;;;4.41;79.31
33506;BME280;19843;51.040;13.782;2023-01-31T03:03:51;100463.69;;;4.35;79.52
33506;BME280;19843;51.040;13.782;2023-01-31T03:06:48;100471.09;;;4.27;79.77
33506;BME280;19843;51.040;13.782;2023-01-31T03:09:33;100472.88;;;4.26;80.28
33506;BME280;19843;51.040;13.782;2023-01-31T03:12:15;100476.34;;;4.28;79.51
33506;BME280;19843;51.040;13.782;2023-01-31T03:14:49;100480.09;;;4.45;79.88
33506;BME280;19843;51.040;13.782;2023-01-31T03:17:25;100486.16;;;4.26;80.10
33506;BME280;19843;51.040;13.782;2023-01-31T03:20:05;100492.22;;;4.30;80.24
33506;BME280;19843;51.040;13.782;2023-01-31T03:22:37;100499.34;;;4.29;81.15
33506;BME280;19843;51.040;13.782;2023-01-31T03:25:07;100503.25;;;4.19;81.31
33506;BME280;19843;51.040;13.782;2023-01-31T03:27:37;100508.78;;;4.13;82.25
33506;BME280;19843;51.040;13.782;2023-01-31T03:30:10;100509.88;;;4.09;82.74
33506;BME280;19843;51.040;13.782;2023-01-31T03:32:43;100514.69;;;4.21;83.44
33506;BME280;19843;51.040;13.782;2023-01-31T03:35:13;100517.00;;;4.07;84.51
33506;BME280;19843;51.040;13.782;2023-01-31T03:37:45;100513.09;;;3.93;85.44
33506;BME280;19843;51.040;13.782;2023-01-31T03:40:20;100531.50;;;3.98;85.75
33506;BME280;19843;51.040;13.782;2023-01-31T03:42:53;100537.00;;;3.92;86.13
33506;BME280;19843;51.040;13.782;2023-01-31T03:45:27;100536.72;;;4.00;85.65
33506;BME280;19843;51.040;13.782;2023-01-31T03:47:59;100534.16;;;3.98;85.39
33506;BME280;19843;51.040;13.782;2023-01-31T03:50:35;100528.72;;;4.01;85.80
33506;BME280;19843;51.040;13.782;2023-01-31T03:53:06;100536.09;;;3.93;86.54
33506;BME280;19843;51.040;13.782;2023-01-31T03:55:39;100535.69;;;3.80;87.93
33506;BME280;19843;51.040;13.782;2023-01-31T03:58:11;100529.28;;;3.86;88.21
33506;BME280;19843;51.040;13.782;2023-01-31T04:00:41;100530.72;;;3.71;88.76
33506;BME280;19843;51.040;13.782;2023-01-31T04:03:11;100545.34;;;3.58;89.39
33506;BME280;19843;51.040;13.782;2023-01-31T04:05:43;100545.78;;;3.45;90.27
33506;BME280;19843;51.040;13.782;2023-01-31T04:08:11;100549.88;;;3.54;90.38
33506;BME280;19843;51.040;13.782;2023-01-31T04:10:39;100555.78;;;3.37;90.93
33506;BME280;19843;51.040;13.782;2023-01-31T04:13:07;100539.72;;;3.42;90.14
33506;BME280;19843;51.040;13.782;2023-01-31T04:15:34;100543.03;;;3.48;90.22
33506;BME280;19843;51.040;13.782;2023-01-31T04:18:02;100556.28;;;3.48;90.43
33506;BME280;19843;51.040;13.782;2023-01-31T04:20:29;100552.78;;;3.48;90.34
33506;BME280;19843;51.040;13.782;2023-01-31T04:22:58;100551.03;;;3.47;90.45
33506;BME280;19843;51.040;13.782;2023-01-31T04:25:26;100564.88;;;3.55;90.36
33506;BME280;19843;51.040;13.782;2023-01-31T04:27:53;100566.59;;;3.56;90.11
33506;BME280;19843;51.040;13.782;2023-01-31T04:30:21;100553.34;;;3.56;90.34
33506;BME280;19843;51.040;13.782;2023-01-31T04:32:49;100561.38;;;3.54;91.00
33506;BME280;19843;51.040;13.782;2023-01-31T04:35:16;100563.31;;;3.49;91.33
33506;BME280;19843;51.040;13.782;2023-01-31T04:37:44;100561.94;;;3.63;91.66
33506;BME280;19843;51.040;13.782;2023-01-31T04:40:13;100562.47;;;3.47;92.43
33506;BME280;19843;51.040;13.782;2023-01-31T04:42:40;100566.84;;;3.50;92.45
33506;BME280;19843;51.040;13.782;2023-01-31T04:45:09;100567.78;;;3.47;92.55
33506;BME280;19843;51.040;13.782;2023-01-31T04:47:36;100566.03;;;3.48;91.81
33506;BME280;19843;51.040;13.782;2023-01-31T04:50:04;100566.34;;;3.64;91.49
33506;BME280;19843;51.040;13.782;2023-01-31T04:52:33;100563.06;;;3.57;91.26
33506;BME280;19843;51.040;13.782;2023-01-31T04:55:00;100561.09;;;3.62;90.58
33506;BME280;19843;51.040;13.782;2023-01-31T04:57:29;100568.41;;;3.79;89.39
33506;BME280;19843;51.040;13.782;2023-01-31T04:59:57;100564.25;;;3.72;88.41
33506;BME280;19843;51.040;13.782;2023-01-31T05:02:24;100577.97;;;3.85;87.33
33506;BME280;19843;51.040;13.782;2023-01-31T05:04:52;100573.38;;;3.88;86.36
33506;BME280;19843;51.040;13.782;2023-01-31T05:07:19;100570.75;;;3.88;86.27
33506;BME280;19843;51.040;13.782;2023-01-31T05:09:46;100558.06;;;3.96;86.04
33506;BME280;19843;51.040;13.782;2023-01-31T05:12:14;100562.13;;;4.07;84.75
33506;BME280;19843;51.040;13.782;2023-01-31T05:14:42;100581.91;;;3.98;84.78
33506;BME280;19843;51.040;13.782;2023-01-31T05:17:10;100570.09;;;4.07;84.48
33506;BME280;19843;51.040;13.782;2023-01-31T05:19:37;100567.66;;;4.01;85.32
33506;BME280;19843;51.040;13.782;2023-01-31T05:22:05;100561.06;;;4.11;84.31
33506;BME280;19843;51.040;13.782;2023-01-31T05:24:32;100569.97;;;4.10;84.40
33506;BME280;19843;51.040;13.782;2023-01-31T05:27:00;100573.78;;;4.03;84.41
33506;BME280;19843;51.040;13.782;2023-01-31T05:29:30;100577.22;;;4.05;84.28
33506;BME280;19843;51.040;13.782;2023-01-31T05:32:01;100565.63;;;4.07;84.08
33506;BME280;19843;51.040;13.782;2023-01-31T05:34:29;100571.66;;;4.11;83.75
33506;BME280;19843;51.040;13.782;2023-01-31T05:36:59;100573.38;;;4.13;84.11
33506;BME280;19843;51.040;13.782;2023-01-31T05:39:26;100592.34;;;4.03;84.21
33506;BME280;19843;51.040;13.782;2023-01-31T05:41:54;100589.81;;;4.23;83.00
33506;BME280;19843;51.040;13.782;2023-01-31T05:44:21;100577.78;;;4.13;82.56
33506;BME280;19843;51.040;13.782;2023-01-31T05:46:49;100585.41;;;4.22;83.07
33506;BME280;19843;51.040;13.782;2023-01-31T05:49:18;100572.03;;;4.02;84.06
33506;BME280;19843;51.040;13.782;2023-01-31T05:51:46;100581.44;;;4.10;83.94
33506;BME280;19843;51.040;13.782;2023-01-31T05:54:13;100580.69;;;4.07;84.49
33506;BME280;19843;51.040;13.782;2023-01-31T05:56:41;100577.09;;;4.08;84.87
33506;BME280;19843;51.040;13.782;2023-01-31T05:59:08;100583.56;;;4.01;85.22
33506;BME280;19843;51.040;13.782;2023-01-31T06:01:36;100586.00;;;4.07;85.44
33506;BME280;19843;51.040;13.782;2023-01-31T06:04:03;100587.38;;;4.17;85.21
33506;BME280;19843;51.040;13.782;2023-01-31T06:06:32;100598.16;;;4.12;85.09
33506;BME280;19843;51.040;13.782;2023-01-31T06:08:59;100605.81;;;4.20;85.23
33506;BME280;19843;51.040;13.782;2023-01-31T06:11:27;100598.94;;;4.16;85.39
33506;BME280;19843;51.040;13.782;2023-01-31T06:13:54;100593.38;;;4.22;85.62
33506;BME280;19843;51.040;13.782;2023-01-31T06:16:24;100584.38;;;4.26;85.91
33506;BME280;19843;51.040;13.782;2023-01-31T06:18:51;100600.88;;;4.11;86.53
33506;BME280;19843;51.040;13.782;2023-01-31T06:21:20;100599.75;;;4.18;85.42
33506;BME280;19843;51.040;13.782;2023-01-31T06:23:49;100595.56;;;4.11;85.44
33506;BME280;19843;51.040;13.782;2023-01-31T06:26:17;100592.81;;;4.14;85.64
33506;BME280;19843;51.040;13.782;2023-01-31T06:28:44;100592.81;;;4.14;85.38
33506;BME280;19843;51.040;13.782;2023-01-31T06:31:12;100602.75;;;4.09;86.11
33506;BME280;19843;51.040;13.782;2023-01-31T06:33:39;100618.81;;;4.04;85.57
33506;BME280;19843;51.040;13.782;2023-01-31T06:36:12;100603.81;;;4.03;85.71
33506;BME280;19843;51.040;13.782;2023-01-31T06:38:47;100604.50;;;4.08;85.40
33506;BME280;19843;51.040;13.782;2023-01-31T06:41:16;100612.72;;;4.02;85.54
33506;BME280;19843;51.040;13.782;2023-01-31T06:43:43;100609.72;;;4.11;85.42
33506;BME280;19843;51.040;13.782;2023-01-31T06:46:11;100627.88;;;4.22;85.46
33506;BME280;19843;51.040;13.782;2023-01-31T06:48:38;100628.47;;;4.07;87.11
33506;BME280;19843;51.040;13.782;2023-01-31T06:51:06;100625.41;;;3.92;88.44
33506;BME280;19843;51.040;13.782;2023-01-31T06:53:33;100621.25;;;3.85;89.79
33506;BME280;19843;51.040;13.782;2023-01-31T06:56:01;100621.56;;;3.78;89.81
33506;BME280;19843;51.040;13.782;2023-01-31T06:58:30;100613.19;;;3.88;89.34
33506;BME280;19843;51.040;13.782;2023-01-31T07:01:04;100618.50;;;3.88;89.43
33506;BME280;19843;51.040;13.782;2023-01-31T07:03:31;100615.84;;;3.88;89.39
33506;BME280;19843;51.040;13.782;2023-01-31T07:05:59;100625.91;;;4.04;88.46
33506;BME280;19843;51.040;13.782;2023-01-31T07:08:26;100632.34;;;3.96;88.61
33506;BME280;19843;51.040;13.782;2023-01-31T07:10:54;100633.00;;;4.03;87.79
33506;BME280;19843;51.040;13.782;2023-01-31T07:13:22;100637.25;;;4.09;87.28
33506;BME280;19843;51.040;13.782;2023-01-31T07:15:51;100655.41;;;4.19;86.36
33506;BME280;19843;51.040;13.782;2023-01-31T07:18:18;100647.50;;;4.18;86.71
33506;BME280;19843;51.040;13.782;2023-01-31T07:20:46;100647.91;;;4.07;85.93
33506;BME280;19843;51.040;13.782;2023-01-31T07:23:13;100646.06;;;4.09;86.36
33506;BME280;19843;51.040;13.782;2023-01-31T07:25:41;100644.13;;;4.13;85.96
33506;BME280;19843;51.040;13.782;2023-01-31T07:28:08;100644.56;;;4.26;85.87
33506;BME280;19843;51.040;13.782;2023-01-31T07:30:36;100648.94;;;4.27;84.49
33506;BME280;19843;51.040;13.782;2023-01-31T07:33:06;100639.69;;;4.38;84.50
33506;BME280;19843;51.040;13.782;2023-01-31T07:35:33;100634.09;;;4.45;84.09
33506;BME280;19843;51.040;13.782;2023-01-31T07:38:01;100648.88;;;4.52;83.22
33506;BME280;19843;51.040;13.782;2023-01-31T07:40:28;100643.19;;;4.39;82.89
33506;BME280;19843;51.040;13.782;2023-01-31T07:42:57;100657.53;;;4.33;82.66
33506;BME280;19843;51.040;13.782;2023-01-31T07:45:25;100643.13;;;4.41;83.03
33506;BME280;19843;51.040;13.782;2023-01-31T07:47:56;100648.44;;;4.41;83.72
33506;BME280;19843;51.040;13.782;2023-01-31T07:50:25;100653.13;;;4.34;83.70
33506;BME280;19843;51.040;13.782;2023-01-31T07:52:53;100663.50;;;4.40;83.98
33506;BME280;19843;51.040;13.782;2023-01-31T07:55:20;100659.84;;;4.43;84.80
33506;BME280;19843;51.040;13.782;2023-01-31T07:57:48;100657.97;;;4.46;84.22
33506;BME280;19843;51.040;13.782;2023-01-31T08:00:16;100655.31;;;4.46;84.33
33506;BME280;19843;51.040;13.782;2023-01-31T08:03:01;100656.13;;;4.48;83.95
33506;BME280;19843;51.040;13.782;2023-01-31T08:05:48;100661.13;;;4.32;85.86
33506;BME280;19843;51.040;13.782;2023-01-31T08:08:16;100661.81;;;4.14;87.19
33506;BME280;19843;51.040;13.782;2023-01-31T08:10:43;100663.84;;;4.31;87.06
33506;BME280;19843;51.040;13.782;2023-01-31T08:13:12;100656.69;;;4.33;86.69
33506;BME280;19843;51.040;13.782;2023-01-31T08:15:40;100646.06;;;4.33;86.65
33506;BME280;19843;51.040;13.782;2023-01-31T08:18:07;100655.69;;;4.35;85.18
33506;BME280;19843;51.040;13.782;2023-01-31T08:20:34;100660.31;;;4.54;83.65
33506;BME280;19843;51.040;13.782;2023-01-31T08:23:05;100649.09;;;4.69;82.66
33506;BME280;19843;51.040;13.782;2023-01-31T08:25:32;100646.44;;;4.93;81.37
33506;BME280;19843;51.040;13.782;2023-01-31T08:27:59;100648.06;;;5.17;80.82
33506;BME280;19843;51.040;13.782;2023-01-31T08:30:27;100639.38;;;5.56;78.18
33506;BME280;19843;51.040;13.782;2023-01-31T08:32:55;100633.38;;;5.51;76.90
33506;BME280;19843;51.040;13.782;2023-01-31T08:35:24;100645.28;;;5.42;76.61
33506;BME280;19843;51.040;13.782;2023-01-31T08:37:51;100639.25;;;5.17;76.70
33506;BME280;19843;51.040;13.782;2023-01-31T08:40:33;100635.69;;;5.18;76.60
33506;BME280;19843;51.040;13.782;2023-01-31T08:43:02;100634.06;;;5.14;77.03
33506;BME280;19843;51.040;13.782;2023-01-31T08:45:29;100633.50;;;5.06;76.11
33506;BME280;19843;51.040;13.782;2023-01-31T08:47:59;100637.28;;;5.00;76.24
33506;BME280;19843;51.040;13.782;2023-01-31T08:50:27;100633.72;;;4.99;75.78
33506;BME280;19843;51.040;13.782;2023-01-31T08:52:58;100635.31;;;5.05;75.74
33506;BME280;19843;51.040;13.782;2023-01-31T08:55:27;100642.13;;;5.11;75.46
33506;BME280;19843;51.040;13.782;2023-01-31T08:57:57;100634.91;;;5.14;74.15
33506;BME280;19843;51.040;13.782;2023-01-31T09:00:25;100626.00;;;5.15;74.62
33506;BME280;19843;51.040;13.782;2023-01-31T09:02:55;100633.06;;;5.16;73.04
33506;BME280;19843;51.040;13.782;2023-01-31T09:05:24;100631.63;;;5.30;74.48
33506;BME280;19843;51.040;13.782;2023-01-31T09:07:52;100632.06;;;5.19;73.92
33506;BME280;19843;51.040;13.782;2023-01-31T09:10:20;100618.59;;;5.23;73.23
33506;BME280;19843;51.040;13.782;2023-01-31T09:12:48;100633.16;;;5.35;72.00
33506;BME280;19843;51.040;13.782;2023-01-31T09:15:17;100625.75;;;5.43;72.09
33506;BME280;19843;51.040;13.782;2023-01-31T09:17:45;100624.47;;;5.32;71.61
33506;BME280;19843;51.040;13.782;2023-01-31T09:20:12;100628.91;;;5.31;71.96
33506;BME280;19843;51.040;13.782;2023-01-31T09:22:40;100625.13;;;5.37;71.30
33506;BME280;19843;51.040;13.782;2023-01-31T09:25:08;100627.47;;;5.44;71.37
33506;BME280;19843;51.040;13.782;2023-01-31T09:27:36;100613.09;;;5.49;70.80
33506;BME280;19843;51.040;13.782;2023-01-31T09:30:06;100617.16;;;5.57;70.08
33506;BME280;19843;51.040;13.782;2023-01-31T09:32:35;100618.56;;;5.46;71.04
33506;BME280;19843;51.040;13.782;2023-01-31T09:35:04;100619.88;;;5.76;70.20
33506;BME280;19843;51.040;13.782;2023-01-31T09:37:31;100610.03;;;6.19;69.85
33506;BME280;19843;51.040;13.782;2023-01-31T09:39:59;100613.63;;;6.18;68.33
33506;BME280;19843;51.040;13.782;2023-01-31T09:42:28;100603.47;;;6.07;68.17
33506;BME280;19843;51.040;13.782;2023-01-31T09:45:00;100624.56;;;6.12;68.50
33506;BME280;19843;51.040;13.782;2023-01-31T09:47:33;100606.59;;;5.97;68.66
33506;BME280;19843;51.040;13.782;2023-01-31T09:50:05;100588.09;;;5.94;68.71
33506;BME280;19843;51.040;13.782;2023-01-31T09:52:37;100592.66;;;5.90;68.17
33506;BME280;19843;51.040;13.782;2023-01-31T09:55:05;100591.44;;;5.99;68.85
33506;BME280;19843;51.040;13.782;2023-01-31T09:57:41;100578.44;;;5.91;68.79
33506;BME280;19843;51.040;13.782;2023-01-31T10:00:19;100573.44;;;6.04;68.63
33506;BME280;19843;51.040;13.782;2023-01-31T10:03:03;100579.94;;;5.98;68.27
33506;BME280;19843;51.040;13.782;2023-01-31T10:05:40;100586.41;;;6.12;68.70
33506;BME280;19843;51.040;13.782;2023-01-31T10:08:14;100579.53;;;6.45;69.05
33506;BME280;19843;51.040;13.782;2023-01-31T10:10:46;100571.31;;;6.31;67.96
33506;BME280;19843;51.040;13.782;2023-01-31T10:13:22;100576.44;;;6.55;67.49
33506;BME280;19843;51.040;13.782;2023-01-31T10:15:57;100564.53;;;6.62;67.18
33506;BME280;19843;51.040;13.782;2023-01-31T10:18:29;100561.44;;;6.71;67.34
33506;BME280;19843;51.040;13.782;2023-01-31T10:21:01;100569.81;;;6.63;67.64
33506;BME280;19843;51.040;13.782;2023-01-31T10:23:34;100569.75;;;6.27;67.86
33506;BME280;19843;51.040;13.782;2023-01-31T10:26:07;100571.47;;;6.28;68.16
33506;BME280;19843;51.040;13.782;2023-01-31T10:28:41;100568.56;;;6.52;68.18
33506;BME280;19843;51.040;13.782;2023-01-31T10:31:21;100561.53;;;6.51;67.69
33506;BME280;19843;51.040;13.782;2023-01-31T10:33:54;100563.25;;;6.52;66.51
33506;BME280;19843;51.040;13.782;2023-01-31T10:36:28;100551.47;;;6.38;67.29
33506;BME280;19843;51.040;13.782;2023-01-31T10:39:01;100549.88;;;6.34;66.79
33506;BME280;19843;51.040;13.782;2023-01-31T10:41:40;100552.81;;;6.47;66.90
33506;BME280;19843;51.040;13.782;2023-01-31T10:44:17;100548.88;;;6.37;66.47
33506;BME280;19843;51.040;13.782;2023-01-31T10:46:46;100544.56;;;6.34;67.18
33506;BME280;19843;51.040;13.782;2023-01-31T10:49:14;100539.22;;;6.34;66.71
33506;BME280;19843;51.040;13.782;2023-01-31T10:52:00;100525.78;;;6.18;66.23
33506;BME280;19843;51.040;13.782;2023-01-31T10:54:41;100522.16;;;6.38;66.10
33506;BME280;19843;51.040;13.782;2023-01-31T10:57:12;100514.91;;;6.23;66.11
33506;BME280;19843;51.040;13.782;2023-01-31T10:59:43;100521.31;;;6.19;66.27
33506;BME280;19843;51.040;13.782;2023-01-31T11:02:18;100510.88;;;6.14;66.31
33506;BME280;19843;51.040;13.782;2023-01-31T11:04:48;100518.56;;;6.20;66.57
33506;BME280;19843;51.040;13.782;2023-01-31T11:07:18;100519.97;;;6.09;66.11
33506;BME280;19843;51.040;13.782;2023-01-31T11:09:48;100508.78;;;6.21;65.86
33506;BME280;19843;51.040;13.782;2023-01-31T11:12:19;100506.28;;;6.18;66.45
33506;BME280;19843;51.040;13.782;2023-01-31T11:15:03;100491.72;;;6.25;65.70
33506;BME280;19843;51.040;13.782;2023-01-31T11:17:35;100493.00;;;6.35;66.06
33506;BME280;19843;51.040;13.782;2023-01-31T11:20:03;100484.03;;;6.19;65.41
33506;BME280;19843;51.040;13.782;2023-01-31T11:22:35;100492.72;;;6.41;65.86
33506;BME280;19843;51.040;13.782;2023-01-31T11:25:05;100477.84;;;6.18;65.49
33506;BME280;19843;51.040;13.782;2023-01-31T11:27:37;100473.31;;;6.20;66.11
33506;BME280;19843;51.040;13.782;2023-01-31T11:30:19;100470.25;;;6.28;66.23
33506;BME280;19843;51.040;13.782;2023-01-31T11:32:48;100468.56;;;6.27;65.79
33506;BME280;19843;51.040;13.782;2023-01-31T11:35:25;100473.72;;;6.30;66.21
33506;BME280;19843;51.040;13.782;2023-01-31T11:37:56;100467.81;;;6.23;65.42
33506;BME280;19843;51.040;13.782;2023-01-31T11:40:30;100454.00;;;6.34;65.93
33506;BME280;19843;51.040;13.782;2023-01-31T11:43:24;100447.03;;;6.49;65.52
33506;BME280;19843;51.040;13.782;2023-01-31T11:45:55;100454.34;;;6.63;65.34
33506;BME280;19843;51.040;13.782;2023-01-31T11:48:25;100450.94;;;6.61;64.91
33506;BME280;19843;51.040;13.782;2023-01-31T11:50:56;100442.13;;;6.59;64.82
33506;BME280;19843;51.040;13.782;2023-01-31T11:53:28;100441.72;;;6.49;64.38
33506;BME280;19843;51.040;13.782;2023-01-31T11:56:10;100442.59;;;6.67;65.03
33506;BME280;19843;51.040;13.782;2023-01-31T11:58:39;100436.72;;;6.60;64.66
33506;BME280;19843;51.040;13.782;2023-01-31T12:01:14;100435.66;;;6.82;64.07
33506;BME280;19843;51.040;13.782;2023-01-31T12:03:45;100424.13;;;6.81;63.38
33506;BME280;19843;51.040;13.782;2023-01-31T12:06:28;100412.03;;;6.92;63.62
33506;BME280;19843;51.040;13.782;2023-01-31T12:09:00;100408.66;;;6.88;63.68
33506;BME280;19843;51.040;13.782;2023-01-31T12:11:30;100390.72;;;6.92;63.31
33506;BME280;19843;51.040;13.782;2023-01-31T12:14:01;100388.75;;;6.95;63.72
33506;BME280;19843;51.040;13.782;2023-01-31T12:16:35;100388.97;;;7.08;64.02
33506;BME280;19843;51.040;13.782;2023-01-31T12:19:06;100395.25;;;7.07;63.29
33506;BME280;19843;51.040;13.782;2023-01-31T12:21:49;100401.13;;;6.96;63.65
33506;BME280;19843;51.040;13.782;2023-01-31T12:24:28;100387.66;;;6.82;63.35
33506;BME280;19843;51.040;13.782;2023-01-31T12:27:05;100381.94;;;6.89;64.46
33506;BME280;19843;51.040;13.782;2023-01-31T12:29:50;100378.34;;;6.90;63.88
33506;BME280;19843;51.040;13.782;2023-01-31T12:32:32;100378.47;;;6.87;63.61
33506;BME280;19843;51.040;13.782;2023-01-31T12:35:27;100365.78;;;6.93;63.34
33506;BME280;19843;51.040;13.782;2023-01-31T12:38:05;100369.47;;;6.90;64.11
33506;BME280;19843;51.040;13.782;2023-01-31T12:40:43;100363.63;;;6.99;64.27
33506;BME280;19843;51.040;13.782;2023-01-31T12:43:26;100367.94;;;6.68;64.25
33506;BME280;19843;51.040;13.782;2023-01-31T12:46:05;100372.16;;;6.73;64.66
33506;BME280;19843;51.040;13.782;2023-01-31T12:48:48;100367.31;;;6.63;65.86
33506;BME280;19843;51.040;13.782;2023-01-31T12:51:27;100354.59;;;6.51;68.60
33506;BME280;19843;51.040;13.782;2023-01-31T12:54:05;100352.81;;;6.34;68.55
33506;BME280;19843;51.040;13.782;2023-01-31T12:56:45;100340.53;;;6.13;71.46
33506;BME280;19843;51.040;13.782;2023-01-31T12:59:34;100336.16;;;6.12;71.93
33506;BME280;19843;51.040;13.782;2023-01-31T13:02:15;100318.78;;;6.04;71.00
33506;BME280;19843;51.040;13.782;2023-01-31T13:04:50;100302.81;;;6.04;71.21
33506;BME280;19843;51.040;13.782;2023-01-31T13:07:24;100316.34;;;6.00;71.33
33506;BME280;19843;51.040;13.782;2023-01-31T13:09:56;100305.09;;;6.12;72.92
33506;BME280;19843;51.040;13.782;2023-01-31T13:12:29;100315.41;;;6.01;72.27